Sunday, July 22, 2018, 2:48 AM GMT
Back to Local

CYYY, Mont Joli, Que.

Location: , , Canada Lat: 48.6
Local Time: 2:48 AM GMT ( 2:48 GMT) Lon: -68.217
Time Zone: GMT Elev: 157 ft

Show me the last for .
Show Decoded

2018-07-22 02:00 METAR CYYY 220200Z 05003KT 030V100 10SM FEW260 16/14 A3011 RMK CI2 SLP197
                 DENSITY ALT 200FT =
2018-07-22 01:00 METAR CYYY 220100Z 09005KT 15SM FEW100 SCT260 18/15 A3010 RMK AC1CI2 SLP193
                 DENSITY ALT 400FT =
2018-07-22 00:00 METAR CYYY 220000Z VRB02KT 15SM FEW100 SCT260 19/16 A3010 RMK AC1CI2 SLP193
                 DENSITY ALT 500FT =
2018-07-21 23:00 METAR CYYY 212300Z 06006KT 15SM FEW040 FEW260 23/17 A3009 RMK SC1CI1 SLP190
                 DENSITY ALT 900FT =
2018-07-21 22:00 METAR CYYY 212200Z 06008KT 30SM FEW040 FEW260 25/16 A3009 RMK SC1CI2 SC TR
                 SLP192 DENSITY ALT 1200FT =
2018-07-21 21:00 METAR CYYY 212100Z 06008KT 30SM FEW040 SCT260 26/17 A3010 RMK SC1CI3 SC TR
                 SLP194 DENSITY ALT 1400FT =
2018-07-21 20:00 METAR CYYY 212000Z 07009KT 30SM FEW032 SCT260 26/16 A3011 RMK CU1CI4 CU TR
                 SLP197 DENSITY ALT 1300FT =
2018-07-21 19:00 METAR CYYY 211900Z 06007KT 030V090 30SM FEW032 BKN260 27/17 A3011 RMK CU1CI6
                 SLP199 DENSITY ALT 1400FT =
2018-07-21 18:00 METAR CYYY 211800Z 06006KT 020V080 30SM FEW035 OVC260 26/17 A3013 RMK CU1CI7
                 SLP203 DENSITY ALT 1300FT =
2018-07-21 17:00 METAR CYYY 211700Z 05007KT 30SM FEW032 BKN260 25/17 A3013 RMK CU1CI5 SLP206
                 DENSITY ALT 1100FT =
2018-07-21 16:00 METAR CYYY 211600Z 03008KT 30SM FEW030 SCT260 24/17 A3014 RMK CU1CI2 SLP208
                 DENSITY ALT 1100FT =
2018-07-21 15:00 METAR CYYY 211500Z 01006KT 30SM FEW030 SCT260 25/19 A3015 RMK CF1CI3 CF TR
                 SLP211 DENSITY ALT 1200FT =
2018-07-21 14:00 METAR CYYY 211400Z 01005KT 30SM FEW260 24/17 A3015 RMK CI2 SLP212 DENSITY ALT
                 1100FT =
2018-07-21 13:00 METAR CYYY 211300Z 03004KT 30SM FEW260 23/16 A3015 RMK CI2 SLP212 DENSITY ALT
                 900FT =
2018-07-21 12:00 METAR CYYY 211200Z 35002KT 30SM FEW260 20/16 A3015 RMK CI2 SLP213 DENSITY ALT
                 600FT =
2018-07-21 11:00 METAR CYYY 211100Z VRB02KT 30SM SKC 21/16 A3014 RMK SLP209 DENSITY ALT 800FT =
2018-07-21 10:00 METAR CYYY 211000Z 00000KT 15SM SCT260 19/16 A3013 RMK CI3 SLP205 DENSITY ALT
                 500FT =
2018-07-21 09:00 METAR CYYY 210900Z 07002KT 15SM SCT260 19/15 A3012 RMK CI3 SLP201 DENSITY ALT
                 500FT =
2018-07-21 08:00 METAR CYYY 210800Z 18006KT 15SM SKC 22/15 A3010 RMK SLP196 DENSITY ALT 900FT =
2018-07-21 07:00 METAR CYYY 210700Z 18004KT 15SM SKC 22/16 A3010 RMK SLP195 DENSITY ALT 900FT =
2018-07-21 05:00 METAR CYYY 210500Z VRB02KT 15SM SKC 22/16 A3010 RMK SLP193 DENSITY ALT 900FT =
2018-07-21 04:00 METAR CYYY 210400Z VRB02KT 15SM SKC 24/16 A3008 RMK SLP189 DENSITY ALT 1100FT =
2018-07-21 03:00 METAR CYYY 210300Z 13003KT 120V230 15SM FEW240 22/16 A3009 RMK CI2 SLP191
                 DENSITY ALT 900FT =

Support USWX by starting your Amazon purchase here.